リール の空港の天気 - METARとTAF

リール空港 ( LFQQ / LIL ) - フランス リール
飛行場実況気象(Metar)
観測時間01/16 20:30 CET (01/16 19:30 UTC)
風向・風速南 2m/s
視程4800m
天気現象もや
全天を覆う雲 雲底高度 150m
気温4℃
湿度100%
気圧1031hPa
METARLFQQ 161930Z AUTO 19003KT 4800 BR OVC005 04/04 Q1031 TEMPO 1500 BR DZ
過去の天気等 Google飛行場航空写真 Wunderground天気予報

過去48時間のMETAR

飛行場予報(TAF)
発表時間: 1/16 18:00 CET (1/16 17:00 UTC)
予報対象時間: 16日19時 CET ~ 18日1時 CET
風向・風速南南西 4m/s
視程6000m
全天を覆う雲 雲底高度 240m
16日19時 CET ~ 17日13時 CET に一時的に
視程1500m
天気現象もや 霧雨
全天を覆う雲 雲底高度 120m
17日14時 CET ~ 17日19時 CET に一時的に
なし
17日19時 CET ~ 17日22時 CET に徐々に
視程2000m
天気現象もや
17日22時 CET ~ 18日1時 CET に一時的に
視程500m
天気現象
TAF LFQQ 161700Z 1618/1724 20007KT 6000 OVC008
TEMPO 1618/1712 1500 BR DZ OVC004
TEMPO 1713/1718 NSC
BECMG 1718/1721 2000 BR
TEMPO 1721/1724 0500 FG VV///